createdAt,value
2019-05-28T00:01:07.403Z,15.48
2019-05-28T00:03:39.642Z,15.48
2019-05-28T00:06:11.755Z,15.43
2019-05-28T00:08:43.916Z,15.42
2019-05-28T00:11:16.629Z,15.33
2019-05-28T00:13:49.747Z,15.36
2019-05-28T00:16:22.766Z,15.32
2019-05-28T00:18:56.681Z,15.35
2019-05-28T00:21:30.008Z,15.25
2019-05-28T00:24:02.501Z,15.16
2019-05-28T00:26:35.171Z,15.18
2019-05-28T00:29:08.057Z,15.19
2019-05-28T00:31:40.422Z,15.16
2019-05-28T00:34:12.606Z,15.16
2019-05-28T00:36:45.654Z,15.21
2019-05-28T00:39:18.838Z,15.19
2019-05-28T00:41:50.652Z,15.14
2019-05-28T00:44:22.824Z,15.07
2019-05-28T00:46:56.273Z,15.09
2019-05-28T00:49:29.983Z,15.09
2019-05-28T00:52:03.076Z,15.09
2019-05-28T00:54:35.771Z,15.10
2019-05-28T00:57:08.701Z,15.05
2019-05-28T00:59:39.860Z,15.04
2019-05-28T01:02:11.894Z,15.03
2019-05-28T01:04:44.765Z,15.02
2019-05-28T01:07:18.228Z,14.98
2019-05-28T01:09:50.522Z,14.94
2019-05-28T01:12:23.338Z,14.95
2019-05-28T01:14:56.009Z,14.92
2019-05-28T01:17:28.704Z,14.92
2019-05-28T01:20:01.340Z,14.93
2019-05-28T01:22:33.343Z,14.86
2019-05-28T01:25:06.939Z,14.90
2019-05-28T01:27:39.552Z,14.92
2019-05-28T01:30:12.375Z,14.92
2019-05-28T01:32:44.793Z,14.87
2019-05-28T01:35:17.155Z,14.89
2019-05-28T01:37:49.820Z,14.91
2019-05-28T01:40:23.322Z,14.83
2019-05-28T01:42:55.847Z,14.85
2019-05-28T01:45:27.658Z,14.83
2019-05-28T01:48:00.041Z,14.82
2019-05-28T01:50:32.463Z,14.82
2019-05-28T01:53:05.634Z,14.81
2019-05-28T01:55:38.668Z,14.77
2019-05-28T01:58:11.324Z,14.75
2019-05-28T02:00:43.740Z,14.65
2019-05-28T02:03:16.753Z,14.64
2019-05-28T02:05:47.886Z,14.71
2019-05-28T02:08:19.972Z,14.68
2019-05-28T02:10:52.314Z,14.64
2019-05-28T02:13:24.897Z,14.56
2019-05-28T02:15:57.319Z,14.57
2019-05-28T02:18:29.404Z,14.60
2019-05-28T02:21:01.220Z,14.53
2019-05-28T02:23:33.378Z,14.50
2019-05-28T02:26:05.833Z,14.48
2019-05-28T02:28:38.720Z,14.49
2019-05-28T02:31:09.505Z,14.40
2019-05-28T02:33:41.197Z,14.38
2019-05-28T02:36:13.847Z,14.36
2019-05-28T02:38:46.467Z,14.36
2019-05-28T02:41:19.243Z,14.32
2019-05-28T02:43:52.189Z,14.25
2019-05-28T02:46:23.846Z,14.24
2019-05-28T02:48:55.912Z,14.19
2019-05-28T02:51:28.563Z,14.25
2019-05-28T02:54:02.497Z,14.18
2019-05-28T02:56:36.989Z,14.19
2019-05-28T02:59:15.964Z,14.16
2019-05-28T03:01:52.534Z,14.14
2019-05-28T03:04:28.026Z,14.11
2019-05-28T03:07:04.111Z,14.14
2019-05-28T03:09:41.513Z,14.13
2019-05-28T03:12:14.236Z,14.12
2019-05-28T03:14:46.698Z,14.19
2019-05-28T03:17:22.067Z,14.15
2019-05-28T03:19:55.496Z,14.15
2019-05-28T03:22:30.534Z,14.19
2019-05-28T03:25:04.998Z,14.17
2019-05-28T03:27:37.359Z,14.20
2019-05-28T03:30:10.568Z,14.19
2019-05-28T03:32:43.084Z,14.20
2019-05-28T03:35:15.999Z,14.19
2019-05-28T03:37:49.433Z,14.19
2019-05-28T03:40:42.010Z,14.20
2019-05-28T03:43:14.956Z,14.20
2019-05-28T03:45:47.033Z,14.21
2019-05-28T03:48:19.162Z,14.21
2019-05-28T03:50:51.552Z,14.20
2019-05-28T03:53:24.154Z,14.22
2019-05-28T03:55:56.493Z,14.22
2019-05-28T03:58:29.174Z,14.21
2019-05-28T04:01:01.926Z,14.22
2019-05-28T04:03:34.397Z,14.27
2019-05-28T04:06:06.775Z,14.27
2019-05-28T04:08:38.858Z,14.31
2019-05-28T04:11:10.616Z,14.33
2019-05-28T04:13:43.019Z,14.33
2019-05-28T04:16:15.582Z,14.38
2019-05-28T04:18:48.811Z,14.38
2019-05-28T04:21:21.851Z,14.40
2019-05-28T04:23:54.838Z,14.41
2019-05-28T04:26:25.991Z,14.40
2019-05-28T04:29:00.663Z,14.37
2019-05-28T04:31:33.140Z,14.38
2019-05-28T04:34:05.533Z,14.42
2019-05-28T04:36:37.626Z,14.42
2019-05-28T04:39:10.659Z,14.48
2019-05-28T04:41:43.608Z,14.47
2019-05-28T04:44:16.325Z,14.46
2019-05-28T04:46:48.325Z,14.51
2019-05-28T04:49:20.400Z,14.52
2019-05-28T04:51:53.176Z,14.55
2019-05-28T04:54:24.249Z,14.56
2019-05-28T04:56:56.595Z,14.59
2019-05-28T04:59:29.372Z,14.63
2019-05-28T05:02:01.799Z,14.74
2019-05-28T05:04:34.198Z,14.76
2019-05-28T05:07:06.201Z,14.75
2019-05-28T05:09:39.226Z,14.79
2019-05-28T05:12:11.642Z,14.87
2019-05-28T05:14:44.388Z,14.80
2019-05-28T05:17:17.105Z,14.85
2019-05-28T05:19:49.795Z,14.83
2019-05-28T05:22:22.234Z,14.87
2019-05-28T05:24:55.681Z,14.90
2019-05-28T05:27:28.526Z,14.92
2019-05-28T05:30:01.044Z,14.88
2019-05-28T05:32:33.685Z,14.92
2019-05-28T05:35:06.526Z,15.03
2019-05-28T05:37:39.613Z,15.14
2019-05-28T05:40:12.104Z,15.21
2019-05-28T05:42:44.501Z,15.23
2019-05-28T05:45:18.317Z,15.23
2019-05-28T05:47:51.382Z,15.28
2019-05-28T05:50:23.923Z,15.32
2019-05-28T05:52:56.297Z,15.45
2019-05-28T05:55:28.927Z,15.39
2019-05-28T05:58:01.569Z,15.45
2019-05-28T06:00:34.278Z,15.65
2019-05-28T06:03:06.603Z,15.50
2019-05-28T06:05:39.241Z,15.58
2019-05-28T06:08:11.349Z,15.62
2019-05-28T06:10:44.230Z,15.55
2019-05-28T06:13:16.970Z,15.69
2019-05-28T06:15:49.306Z,15.71
2019-05-28T06:18:21.423Z,15.72
2019-05-28T06:21:07.336Z,15.75
2019-05-28T06:23:28.567Z,15.70
2019-05-28T06:26:01.578Z,15.72
2019-05-28T06:28:32.934Z,15.75
2019-05-28T06:31:04.995Z,15.93
2019-05-28T06:33:37.078Z,16.00
2019-05-28T06:36:09.661Z,16.01
2019-05-28T06:38:42.409Z,16.08
2019-05-28T06:41:14.849Z,16.21
2019-05-28T06:43:47.518Z,16.40
2019-05-28T06:46:20.602Z,16.45
2019-05-28T06:48:53.644Z,16.60
2019-05-28T06:51:26.106Z,16.33
2019-05-28T06:53:58.312Z,16.33
2019-05-28T06:56:30.441Z,16.31
2019-05-28T06:59:02.717Z,16.36
2019-05-28T07:01:35.501Z,16.61
2019-05-28T07:04:13.780Z,16.64
2019-05-28T07:06:42.596Z,16.73
2019-05-28T07:09:14.967Z,16.82
2019-05-28T07:11:47.854Z,16.83
2019-05-28T07:14:18.596Z,16.92
2019-05-28T07:16:53.644Z,17.12
2019-05-28T07:19:25.487Z,17.19
2019-05-28T07:21:57.454Z,16.99
2019-05-28T07:24:30.443Z,16.77
2019-05-28T07:27:03.185Z,16.73
2019-05-28T07:29:35.818Z,16.75
2019-05-28T07:32:08.856Z,16.80
2019-05-28T07:34:41.234Z,16.74
2019-05-28T07:37:13.322Z,16.90
2019-05-28T07:39:45.878Z,16.97
2019-05-28T07:42:31.883Z,16.96
2019-05-28T07:44:52.710Z,16.78
2019-05-28T07:47:25.457Z,16.68
2019-05-28T07:49:57.930Z,16.57
2019-05-28T07:52:31.639Z,16.61
2019-05-28T07:55:04.355Z,16.60
2019-05-28T07:57:36.711Z,16.63
2019-05-28T08:00:09.204Z,16.60
2019-05-28T08:02:41.543Z,16.71
2019-05-28T08:05:17.041Z,16.77
2019-05-28T08:07:48.500Z,16.87
2019-05-28T08:10:20.692Z,16.87
2019-05-28T08:12:52.772Z,16.89
2019-05-28T08:15:24.913Z,17.03
2019-05-28T08:17:58.190Z,17.14
2019-05-28T08:20:30.983Z,17.28
2019-05-28T08:23:03.424Z,17.34
2019-05-28T08:25:47.027Z,17.13
2019-05-28T08:28:19.720Z,17.09
2019-05-28T08:30:46.145Z,16.95
2019-05-28T08:33:17.237Z,17.15
2019-05-28T08:35:51.536Z,17.36
2019-05-28T08:38:24.091Z,17.24
2019-05-28T08:40:56.627Z,17.21
2019-05-28T08:43:29.003Z,17.44
2019-05-28T08:46:01.822Z,17.54
2019-05-28T08:48:33.890Z,17.20
2019-05-28T08:51:10.114Z,17.31
2019-05-28T08:53:41.363Z,17.56
2019-05-28T08:56:14.129Z,18.08
2019-05-28T08:58:46.631Z,17.97
2019-05-28T09:01:19.284Z,18.42
2019-05-28T09:03:51.353Z,18.61
2019-05-28T09:06:27.119Z,18.85
2019-05-28T09:09:00.581Z,18.04
2019-05-28T09:11:33.382Z,18.32
2019-05-28T09:14:04.597Z,18.82
2019-05-28T09:16:37.203Z,18.61
2019-05-28T09:19:10.496Z,18.94
2019-05-28T09:21:42.353Z,18.86
2019-05-28T09:24:15.117Z,19.14
2019-05-28T09:26:47.201Z,18.68
2019-05-28T09:29:19.583Z,19.01
2019-05-28T09:31:52.361Z,19.11
2019-05-28T09:34:24.779Z,19.20
2019-05-28T09:36:57.516Z,19.16
2019-05-28T09:39:30.064Z,19.47
2019-05-28T09:42:01.203Z,19.91
2019-05-28T09:44:33.341Z,19.67
2019-05-28T09:47:06.378Z,19.40
2019-05-28T09:49:38.437Z,19.95
2019-05-28T09:52:10.898Z,20.32
2019-05-28T09:54:43.338Z,19.79
2019-05-28T09:57:15.759Z,19.98
2019-05-28T09:59:48.254Z,20.53
2019-05-28T10:02:20.817Z,20.21
2019-05-28T10:04:53.231Z,20.22
2019-05-28T10:07:25.341Z,20.50
2019-05-28T10:09:57.997Z,20.36
2019-05-28T10:12:29.916Z,21.13
2019-05-28T10:15:02.600Z,20.83
2019-05-28T10:17:35.802Z,20.72
2019-05-28T10:20:09.635Z,20.87
2019-05-28T10:22:42.909Z,20.75
2019-05-28T10:25:17.014Z,20.64
2019-05-28T10:28:00.756Z,20.44
2019-05-28T10:30:28.476Z,20.26
2019-05-28T10:33:00.863Z,19.67
2019-05-28T10:35:34.833Z,19.78
2019-05-28T10:38:06.624Z,19.54
2019-05-28T10:40:38.693Z,19.42
2019-05-28T10:43:11.094Z,19.11
2019-05-28T10:45:44.173Z,19.33
2019-05-28T10:48:16.408Z,19.25
2019-05-28T10:50:49.189Z,19.04
2019-05-28T10:53:20.309Z,19.28
2019-05-28T10:55:52.905Z,19.16
2019-05-28T10:58:25.055Z,18.87
2019-05-28T11:00:57.637Z,18.93
2019-05-28T11:03:30.444Z,18.73
2019-05-28T11:06:01.789Z,18.78
2019-05-28T11:08:34.196Z,18.89
2019-05-28T11:11:05.720Z,19.31
2019-05-28T11:13:52.089Z,18.87
2019-05-28T11:16:11.615Z,19.03
2019-05-28T11:18:44.250Z,18.70
2019-05-28T11:21:16.314Z,18.06
2019-05-28T11:23:49.221Z,17.17
2019-05-28T11:26:21.544Z,16.90
2019-05-28T11:28:53.544Z,16.75
2019-05-28T11:31:26.609Z,16.66
2019-05-28T11:33:59.123Z,16.49
2019-05-28T11:36:31.766Z,16.66
2019-05-28T11:39:06.386Z,16.60
2019-05-28T11:41:42.438Z,16.57
2019-05-28T11:44:12.825Z,16.95
2019-05-28T11:46:45.227Z,17.21
2019-05-28T11:49:17.288Z,16.91
2019-05-28T11:51:50.062Z,17.18
2019-05-28T11:54:21.450Z,17.26
2019-05-28T11:56:53.471Z,17.34
2019-05-28T11:59:26.594Z,17.41
2019-05-28T12:01:59.088Z,17.40
2019-05-28T12:04:32.057Z,17.50
2019-05-28T12:07:02.826Z,17.82
2019-05-28T12:09:35.242Z,17.14
2019-05-28T12:12:07.285Z,17.27
2019-05-28T12:14:40.107Z,17.45
2019-05-28T12:17:12.880Z,17.31
2019-05-28T12:19:45.034Z,17.53
2019-05-28T12:22:17.979Z,17.34
2019-05-28T12:24:50.408Z,17.35
2019-05-28T12:27:23.464Z,17.41
2019-05-28T12:29:56.239Z,17.43
2019-05-28T12:32:28.064Z,17.79
2019-05-28T12:35:01.091Z,18.07
2019-05-28T12:37:46.909Z,18.38
2019-05-28T12:40:08.256Z,18.11
2019-05-28T12:42:39.386Z,18.46
2019-05-28T12:45:12.053Z,18.46
2019-05-28T12:47:44.858Z,18.10
2019-05-28T12:50:20.420Z,18.38
2019-05-28T12:52:51.325Z,18.21
2019-05-28T12:55:24.469Z,18.32
2019-05-28T12:57:56.765Z,17.52
2019-05-28T13:00:29.828Z,17.90
2019-05-28T13:03:02.446Z,17.25
2019-05-28T13:05:35.939Z,17.63
2019-05-28T13:08:10.403Z,17.35
2019-05-28T13:10:42.159Z,17.68
2019-05-28T13:13:14.896Z,17.75
2019-05-28T13:15:47.033Z,17.88
2019-05-28T13:18:19.118Z,17.98
2019-05-28T13:20:51.528Z,18.15
2019-05-28T13:23:23.984Z,18.24
2019-05-28T13:25:56.419Z,18.28
2019-05-28T13:28:29.494Z,18.24
2019-05-28T13:31:01.630Z,18.05
2019-05-28T13:33:34.146Z,18.01
2019-05-28T13:36:07.087Z,18.20
2019-05-28T13:38:42.722Z,18.46
2019-05-28T13:41:13.950Z,18.49
2019-05-28T13:43:46.972Z,18.33
2019-05-28T13:46:19.075Z,17.58
2019-05-28T13:48:51.948Z,17.81
2019-05-28T13:51:23.162Z,18.61
2019-05-28T13:53:55.770Z,18.47
2019-05-28T13:56:28.364Z,19.26
2019-05-28T13:59:00.818Z,18.95
2019-05-28T14:01:33.107Z,18.49
2019-05-28T14:04:06.955Z,18.79
2019-05-28T14:06:44.137Z,18.67
2019-05-28T14:09:13.752Z,18.50
2019-05-28T14:11:46.092Z,18.56
2019-05-28T14:14:18.880Z,18.20
2019-05-28T14:16:50.352Z,18.53
2019-05-28T14:19:22.508Z,18.30
2019-05-28T14:21:54.867Z,18.32
2019-05-28T14:24:27.651Z,17.69
2019-05-28T14:26:59.126Z,18.26
2019-05-28T14:29:31.080Z,18.21
2019-05-28T14:32:03.736Z,17.78
2019-05-28T14:34:36.469Z,18.01
2019-05-28T14:37:08.879Z,18.24
2019-05-28T14:39:41.965Z,18.07
2019-05-28T14:42:17.518Z,18.44
2019-05-28T14:44:48.713Z,18.08
2019-05-28T14:47:21.679Z,17.61
2019-05-28T14:49:54.129Z,17.15
2019-05-28T14:52:26.560Z,17.59
2019-05-28T14:54:59.969Z,17.80
2019-05-28T14:57:31.865Z,17.60
2019-05-28T15:00:04.527Z,17.40
2019-05-28T15:02:37.125Z,17.29
2019-05-28T15:05:10.820Z,17.19
2019-05-28T15:07:42.955Z,17.42
2019-05-28T15:10:17.493Z,16.91
2019-05-28T15:12:49.891Z,16.73
2019-05-28T15:15:35.085Z,16.91
2019-05-28T15:17:56.776Z,17.04
2019-05-28T15:20:28.236Z,17.15
2019-05-28T15:23:00.952Z,17.21
2019-05-28T15:25:33.490Z,16.98
2019-05-28T15:28:06.615Z,17.18
2019-05-28T15:30:42.533Z,17.07
2019-05-28T15:33:13.794Z,16.97
2019-05-28T15:35:45.285Z,17.62
2019-05-28T15:38:17.935Z,18.15
2019-05-28T15:40:50.617Z,18.31
2019-05-28T15:43:23.555Z,18.32
2019-05-28T15:45:57.155Z,18.31
2019-05-28T15:48:29.947Z,18.62
2019-05-28T15:51:02.032Z,18.51
2019-05-28T15:53:34.512Z,18.47
2019-05-28T15:56:06.846Z,17.96
2019-05-28T15:58:39.561Z,17.95
2019-05-28T16:01:11.651Z,18.75
2019-05-28T16:03:44.164Z,18.97
2019-05-28T16:06:16.751Z,19.13
2019-05-28T16:08:49.425Z,18.96
2019-05-28T16:11:21.926Z,18.89
2019-05-28T16:13:54.474Z,19.05
2019-05-28T16:16:25.299Z,18.66
2019-05-28T16:18:58.278Z,18.56
2019-05-28T16:21:31.302Z,18.32
2019-05-28T16:24:04.577Z,19.04
2019-05-28T16:26:37.357Z,18.49
2019-05-28T16:29:08.142Z,18.25
2019-05-28T16:31:40.769Z,17.91
2019-05-28T16:34:12.580Z,18.02
2019-05-28T16:36:46.674Z,17.84
2019-05-28T16:39:19.326Z,17.43
2019-05-28T16:41:50.155Z,17.12
2019-05-28T16:44:22.495Z,17.04
2019-05-28T16:47:14.763Z,16.92
2019-05-28T16:49:28.876Z,16.91
2019-05-28T16:52:02.080Z,17.09
2019-05-28T16:54:34.903Z,17.13
2019-05-28T16:57:07.638Z,17.14
2019-05-28T16:59:40.379Z,17.34
2019-05-28T17:02:11.644Z,17.03
2019-05-28T17:04:44.526Z,16.81
2019-05-28T17:07:16.951Z,16.70
2019-05-28T17:09:49.446Z,16.73
2019-05-28T17:12:21.891Z,16.45
2019-05-28T17:14:54.648Z,16.44
2019-05-28T17:17:27.022Z,16.50
2019-05-28T17:20:00.510Z,16.49
2019-05-28T17:22:33.021Z,16.33
2019-05-28T17:25:10.744Z,16.33
2019-05-28T17:27:40.730Z,16.28
2019-05-28T17:30:19.341Z,16.24
2019-05-28T17:32:47.681Z,16.27
2019-05-28T17:35:20.733Z,16.17
2019-05-28T17:37:53.968Z,16.16
2019-05-28T17:40:26.583Z,16.07
2019-05-28T17:42:59.413Z,16.06
2019-05-28T17:45:31.747Z,15.99
2019-05-28T17:48:04.479Z,15.89
2019-05-28T17:50:40.306Z,15.66
2019-05-28T17:53:12.746Z,15.88
2019-05-28T17:55:45.427Z,15.79
2019-05-28T17:58:17.585Z,15.59
2019-05-28T18:00:50.647Z,15.66
2019-05-28T18:03:23.975Z,15.73
2019-05-28T18:05:56.614Z,15.52
2019-05-28T18:08:29.874Z,15.42
2019-05-28T18:11:04.766Z,15.44
2019-05-28T18:13:37.064Z,15.44
2019-05-28T18:16:09.221Z,15.35
2019-05-28T18:18:45.018Z,15.28
2019-05-28T18:21:17.899Z,15.18
2019-05-28T18:23:49.342Z,15.15
2019-05-28T18:26:21.633Z,15.18
2019-05-28T18:28:55.221Z,15.26
2019-05-28T18:31:27.595Z,15.12
2019-05-28T18:34:00.638Z,15.00
2019-05-28T18:36:31.977Z,15.05
2019-05-28T18:39:05.161Z,15.06
2019-05-28T18:41:37.588Z,14.81
2019-05-28T18:44:10.526Z,14.84
2019-05-28T18:46:42.486Z,14.73
2019-05-28T18:49:14.681Z,14.62
2019-05-28T18:51:47.857Z,14.55
2019-05-28T18:54:19.921Z,14.57
2019-05-28T18:56:52.830Z,14.49
2019-05-28T18:59:26.399Z,14.29
2019-05-28T19:02:02.454Z,14.22
2019-05-28T19:04:35.345Z,14.27
2019-05-28T19:07:06.966Z,14.05
2019-05-28T19:09:39.346Z,13.99
2019-05-28T19:12:12.113Z,14.01
2019-05-28T19:14:44.743Z,13.94
2019-05-28T19:17:17.049Z,13.80
2019-05-28T19:19:50.362Z,13.74
2019-05-28T19:22:23.150Z,13.78
2019-05-28T19:24:57.367Z,13.63
2019-05-28T19:27:30.498Z,13.60
2019-05-28T19:30:02.931Z,13.51
2019-05-28T19:32:35.258Z,13.46
2019-05-28T19:35:08.832Z,13.37
2019-05-28T19:37:42.877Z,13.40
2019-05-28T19:40:20.749Z,13.33
2019-05-28T19:42:53.057Z,13.35
2019-05-28T19:45:25.793Z,13.36
2019-05-28T19:47:58.374Z,13.27
2019-05-28T19:50:30.325Z,13.26
2019-05-28T19:53:03.237Z,13.22
2019-05-28T19:55:35.981Z,13.01
2019-05-28T19:58:08.057Z,12.96
2019-05-28T20:00:40.881Z,12.87
2019-05-28T20:03:11.962Z,12.98
2019-05-28T20:05:44.840Z,12.95
2019-05-28T20:08:17.635Z,12.79
2019-05-28T20:10:50.937Z,12.75
2019-05-28T20:13:24.144Z,12.66
2019-05-28T20:15:57.105Z,12.68
2019-05-28T20:18:29.816Z,12.73
2019-05-28T20:21:02.494Z,12.60
2019-05-28T20:23:35.758Z,12.52
2019-05-28T20:26:09.336Z,12.52
2019-05-28T20:28:42.737Z,12.58
2019-05-28T20:31:15.479Z,12.49
2019-05-28T20:33:47.883Z,12.35
2019-05-28T20:36:20.931Z,12.29
2019-05-28T20:38:51.714Z,12.45
2019-05-28T20:41:24.064Z,12.40
2019-05-28T20:43:56.386Z,12.36
2019-05-28T20:46:28.486Z,12.27
2019-05-28T20:49:00.701Z,12.20
2019-05-28T20:51:32.774Z,12.25
2019-05-28T20:54:05.666Z,12.15
2019-05-28T20:56:38.438Z,12.02
2019-05-28T20:59:11.398Z,11.95
2019-05-28T21:01:44.483Z,11.91
2019-05-28T21:04:17.765Z,11.84
2019-05-28T21:06:51.864Z,11.90
2019-05-28T21:09:24.777Z,11.84
2019-05-28T21:11:58.657Z,11.80
2019-05-28T21:14:31.338Z,11.70
2019-05-28T21:17:04.102Z,11.72
2019-05-28T21:19:36.396Z,11.65
2019-05-28T21:22:25.564Z,11.51
2019-05-28T21:24:46.054Z,11.41
2019-05-28T21:27:18.661Z,11.39
2019-05-28T21:29:52.093Z,11.26
2019-05-28T21:32:24.803Z,11.18
2019-05-28T21:34:59.235Z,11.15
2019-05-28T21:37:31.821Z,11.16
2019-05-28T21:40:04.542Z,11.12
2019-05-28T21:42:36.594Z,11.07
2019-05-28T21:45:13.937Z,11.10
2019-05-28T21:47:46.899Z,11.09
2019-05-28T21:50:20.036Z,10.91
2019-05-28T21:52:51.355Z,10.89
2019-05-28T21:55:23.063Z,10.91
2019-05-28T21:57:55.907Z,10.92
2019-05-28T22:00:46.251Z,10.79
2019-05-28T22:03:19.128Z,10.79
2019-05-28T22:05:51.483Z,10.66
2019-05-28T22:08:24.238Z,10.59
2019-05-28T22:10:57.715Z,10.54
2019-05-28T22:13:31.124Z,10.58
2019-05-28T22:16:02.379Z,10.54
2019-05-28T22:18:34.942Z,10.58
2019-05-28T22:21:08.563Z,10.53
2019-05-28T22:23:41.676Z,10.56
2019-05-28T22:26:14.631Z,10.52
2019-05-28T22:28:48.182Z,10.48
2019-05-28T22:31:21.067Z,10.41
2019-05-28T22:33:53.700Z,10.30
2019-05-28T22:36:25.957Z,10.30
2019-05-28T22:39:08.938Z,10.29
2019-05-28T22:41:43.085Z,10.22
2019-05-28T22:44:15.979Z,10.25
2019-05-28T22:46:48.436Z,10.23
2019-05-28T22:49:21.086Z,10.18
2019-05-28T22:51:54.222Z,10.18
2019-05-28T22:54:25.352Z,10.15
2019-05-28T22:56:57.985Z,10.13
2019-05-28T22:59:28.888Z,10.10
2019-05-28T23:02:01.146Z,10.07
2019-05-28T23:04:34.183Z,10.07
2019-05-28T23:07:05.545Z,10.10
2019-05-28T23:09:38.157Z,10.12
2019-05-28T23:12:10.130Z,10.02
2019-05-28T23:14:42.934Z,10.01
2019-05-28T23:17:14.936Z,9.98
2019-05-28T23:19:47.679Z,9.89
2019-05-28T23:22:21.064Z,9.88
2019-05-28T23:24:54.126Z,9.83
2019-05-28T23:27:27.094Z,9.85
2019-05-28T23:29:59.233Z,9.87
2019-05-28T23:32:31.682Z,9.82
2019-05-28T23:35:04.389Z,9.76
2019-05-28T23:37:37.171Z,9.67
2019-05-28T23:40:11.311Z,9.65
2019-05-28T23:42:44.158Z,9.59
2019-05-28T23:45:18.093Z,9.59
2019-05-28T23:47:51.029Z,9.58
2019-05-28T23:50:23.572Z,9.55
2019-05-28T23:52:56.455Z,9.55
2019-05-28T23:55:29.134Z,9.60
2019-05-28T23:58:02.125Z,9.60
